Time;durP1;ratioP1;P1;durP2;ratioP2;P2;SDS_P1;SDS_P2;PMS_P1;PMS_P2;Temp;Humidity;BMP_temperature;BMP_pressure;BME280_temperature;BME280_humidity;BME280_pressure;Samples;Min_cycle;Max_cycle;Signal;HPM_P1;HPM_P2
2021/12/15 00:01:56;;;;;;;370.75;205.57;;;;;;;;;;5024267;28;20753;-52
2021/12/15 00:04:22;;;;;;;367.35;204.13;;;;;;;;;;5024183;28;20021;-54
2021/12/15 00:06:47;;;;;;;350.05;193.13;;;;;;;;;;5024171;28;20028;-54
2021/12/15 00:09:12;;;;;;;365.27;203.60;;;;;;;;;;5024360;28;20137;-52
2021/12/15 00:11:38;;;;;;;352.08;193.85;;;;;;;;;;5024687;28;20037;-52
2021/12/15 00:14:04;;;;;;;376.50;208.77;;;;;;;;;;5005227;28;20546;-53
2021/12/15 00:16:29;;;;;;;352.08;196.80;;;;;;;;;;5004721;28;20020;-55
2021/12/15 00:18:55;;;;;;;345.13;190.43;;;;;;;;;;5004386;28;20041;-52
2021/12/15 00:21:20;;;;;;;362.98;201.02;;;;;;;;;;5005645;28;20277;-53
2021/12/15 00:23:46;;;;;;;383.25;214.82;;;;;;;;;;5007877;28;20065;-54
2021/12/15 00:26:11;;;;;;;355.25;196.32;;;;;;;;;;5012050;28;20025;-52
2021/12/15 00:28:36;;;;;;;349.35;192.85;;;;;;;;;;5027910;28;20045;-55
2021/12/15 00:31:02;;;;;;;364.20;203.23;;;;;;;;;;5027522;28;20026;-51
2021/12/15 00:33:27;;;;;;;369.38;206.68;;;;;;;;;;5027665;28;20030;-54
2021/12/15 00:35:55;;;;;;;367.20;203.80;;;;;;;;;;5027674;28;20037;-53
2021/12/15 00:38:20;;;;;;;380.30;213.63;;;;;;;;;;5027618;28;20034;-53
2021/12/15 00:40:46;;;;;;;364.10;203.33;;;;;;;;;;5027958;28;20037;-54
2021/12/15 00:43:11;;;;;;;373.50;208.97;;;;;;;;;;5027511;28;20264;-51
2021/12/15 00:45:36;;;;;;;369.90;206.07;;;;;;;;;;5027864;28;20351;-55
2021/12/15 00:48:01;;;;;;;393.88;222.82;;;;;;;;;;5027292;28;20432;-51
2021/12/15 00:50:28;;;;;;;369.33;206.73;;;;;;;;;;5027679;28;20025;-54
2021/12/15 00:52:53;;;;;;;355.00;198.32;;;;;;;;;;5018142;28;20273;-55
2021/12/15 00:55:19;;;;;;;400.20;227.25;;;;;;;;;;5007763;28;20030;-53
2021/12/15 00:57:45;;;;;;;407.00;231.48;;;;;;;;;;5007846;28;20037;-56
2021/12/15 01:00:11;;;;;;;399.65;226.82;;;;;;;;;;5010932;28;20510;-53
2021/12/15 01:02:37;;;;;;;371.33;206.15;;;;;;;;;;5027364;28;20017;-54
2021/12/15 01:05:03;;;;;;;390.35;221.07;;;;;;;;;;5027406;28;20040;-54
2021/12/15 01:07:28;;;;;;;374.15;209.63;;;;;;;;;;5011812;28;20024;-51
2021/12/15 01:09:55;;;;;;;384.70;215.95;;;;;;;;;;5024605;28;20051;-54
2021/12/15 01:20:28;;;;;;;396.83;225.18;;;;;;;;;;5025491;28;20044;-51
2021/12/15 01:22:54;;;;;;;373.97;207.87;;;;;;;;;;5026311;28;20026;-52
2021/12/15 01:25:23;;;;;;;400.83;227.63;;;;;;;;;;5026399;28;20029;-52
2021/12/15 01:27:49;;;;;;;387.53;218.03;;;;;;;;;;5025986;28;20112;-53
2021/12/15 01:30:15;;;;;;;390.13;219.68;;;;;;;;;;5026065;28;20633;-51
2021/12/15 01:32:40;;;;;;;411.85;234.65;;;;;;;;;;5025717;28;20512;-52
2021/12/15 01:35:06;;;;;;;414.23;236.23;;;;;;;;;;5026341;28;20033;-52
2021/12/15 01:37:31;;;;;;;406.58;230.45;;;;;;;;;;5026498;28;20029;-51
2021/12/15 01:39:56;;;;;;;466.03;273.57;;;;;;;;;;5025956;28;20049;-52
2021/12/15 01:42:28;;;;;;;473.30;275.60;;;;;;;;;;5026270;28;20276;-53
2021/12/15 01:47:37;;;;;;;469.10;276.38;;;;;;;;;;5026093;28;20033;-51
2021/12/15 01:50:03;;;;;;;438.20;252.60;;;;;;;;;;5025454;28;20025;-52
2021/12/15 01:52:29;;;;;;;458.77;268.13;;;;;;;;;;5025771;28;20267;-53
2021/12/15 01:55:03;;;;;;;442.67;257.13;;;;;;;;;;5025691;28;20033;-52
2021/12/15 01:57:29;;;;;;;483.70;285.30;;;;;;;;;;5025896;28;20025;-52
2021/12/15 01:59:54;;;;;;;441.27;256.25;;;;;;;;;;5025880;28;20124;-52
2021/12/15 02:02:20;;;;;;;484.92;280.83;;;;;;;;;;5026080;28;20491;-52
2021/12/15 02:04:45;;;;;;;468.27;273.40;;;;;;;;;;5025773;28;20032;-51
2021/12/15 02:07:13;;;;;;;484.15;283.42;;;;;;;;;;5025471;28;20036;-53
2021/12/15 02:12:04;;;;;;;501.07;296.63;;;;;;;;;;5024611;28;20071;-52
2021/12/15 02:14:31;;;;;;;498.48;295.33;;;;;;;;;;5024817;28;20423;-52
2021/12/15 02:16:56;;;;;;;488.95;288.92;;;;;;;;;;5025113;28;20098;-53
2021/12/15 02:19:22;;;;;;;461.60;267.52;;;;;;;;;;5023223;28;20514;-53
2021/12/15 02:21:47;;;;;;;442.37;255.60;;;;;;;;;;5024008;28;20044;-52
2021/12/15 02:24:12;;;;;;;448.50;259.27;;;;;;;;;;5024529;28;20470;-52
2021/12/15 02:26:38;;;;;;;442.27;254.70;;;;;;;;;;4999494;28;20422;-51
2021/12/15 02:29:05;;;;;;;414.40;235.77;;;;;;;;;;5032859;28;20085;-51
2021/12/15 02:31:39;;;;;;;433.55;249.57;;;;;;;;;;5021249;28;20036;-52
2021/12/15 02:39:29;;;;;;;434.88;249.65;;;;;;;;;;5023962;28;20042;-50
2021/12/15 02:41:54;;;;;;;429.05;244.38;;;;;;;;;;5023808;28;20039;-53
2021/12/15 02:44:20;;;;;;;412.00;231.00;;;;;;;;;;5023250;28;20029;-54
2021/12/15 02:46:45;;;;;;;443.55;254.02;;;;;;;;;;5024354;28;20026;-54
2021/12/15 02:49:12;;;;;;;421.17;238.48;;;;;;;;;;5024720;28;20760;-54
2021/12/15 02:51:37;;;;;;;414.13;233.75;;;;;;;;;;5024601;28;20036;-53
2021/12/15 02:54:03;;;;;;;434.25;246.95;;;;;;;;;;5024286;28;20025;-54
2021/12/15 02:56:28;;;;;;;448.10;257.10;;;;;;;;;;5024864;28;20092;-54
2021/12/15 02:58:59;;;;;;;411.13;231.68;;;;;;;;;;5024786;28;20029;-51
2021/12/15 03:01:35;;;;;;;449.20;257.48;;;;;;;;;;5038957;28;20021;-54
2021/12/15 03:04:30;;;;;;;448.48;257.70;;;;;;;;;;5024398;28;20036;-53
2021/12/15 03:07:09;;;;;;;470.67;270.73;;;;;;;;;;5024462;28;20034;-54
2021/12/15 03:17:39;;;;;;;445.05;253.60;;;;;;;;;;5037534;28;20099;-56
2021/12/15 03:20:05;;;;;;;454.53;259.80;;;;;;;;;;5024194;28;20048;-57
2021/12/15 03:22:31;;;;;;;453.88;257.08;;;;;;;;;;5024288;28;20267;-54
2021/12/15 03:24:56;;;;;;;465.92;267.75;;;;;;;;;;5024567;28;20503;-54
2021/12/15 03:33:13;;;;;;;458.83;260.58;;;;;;;;;;5024275;28;20022;-53
2021/12/15 03:35:47;;;;;;;520.60;302.17;;;;;;;;;;5024437;28;20032;-55
2021/12/15 03:38:12;;;;;;;535.05;313.42;;;;;;;;;;5023946;28;20052;-53
2021/12/15 03:40:40;;;;;;;523.90;306.47;;;;;;;;;;5024376;28;20026;-55
2021/12/15 03:43:09;;;;;;;532.85;311.27;;;;;;;;;;5024213;28;20269;-52
2021/12/15 03:45:38;;;;;;;528.73;309.27;;;;;;;;;;5024162;28;20112;-51
2021/12/15 03:48:06;;;;;;;551.63;327.75;;;;;;;;;;5024054;28;20375;-55
2021/12/15 03:50:32;;;;;;;541.60;319.13;;;;;;;;;;5024022;28;20041;-55
2021/12/15 03:52:57;;;;;;;566.40;335.88;;;;;;;;;;5023812;28;20120;-55
2021/12/15 03:55:23;;;;;;;552.58;327.25;;;;;;;;;;5025369;28;20059;-56
2021/12/15 03:57:49;;;;;;;577.30;344.70;;;;;;;;;;5028130;28;20032;-54
2021/12/15 04:00:14;;;;;;;557.67;329.92;;;;;;;;;;5028114;28;20033;-52
2021/12/15 04:02:40;;;;;;;550.15;325.35;;;;;;;;;;5027996;28;20022;-53
2021/12/15 04:05:05;;;;;;;557.42;331.25;;;;;;;;;;5028169;28;20061;-52
2021/12/15 04:07:31;;;;;;;568.63;335.60;;;;;;;;;;5027885;28;20120;-53
2021/12/15 04:09:56;;;;;;;558.15;330.20;;;;;;;;;;5027941;28;20389;-51
2021/12/15 04:12:22;;;;;;;581.60;346.93;;;;;;;;;;5028109;28;20025;-55
2021/12/15 04:14:55;;;;;;;548.47;322.40;;;;;;;;;;5028014;28;20307;-53
2021/12/15 04:17:26;;;;;;;575.28;342.05;;;;;;;;;;5027872;28;20022;-52
2021/12/15 04:19:53;;;;;;;555.58;328.25;;;;;;;;;;5042433;28;20663;-54
2021/12/15 04:22:18;;;;;;;551.20;325.30;;;;;;;;;;5027693;28;20741;-53
2021/12/15 04:24:43;;;;;;;562.23;331.57;;;;;;;;;;5027865;28;20028;-54
2021/12/15 04:27:09;;;;;;;548.00;319.67;;;;;;;;;;5027469;28;20646;-55
2021/12/15 04:29:34;;;;;;;545.17;319.70;;;;;;;;;;5042977;28;20377;-51
2021/12/15 04:32:03;;;;;;;546.47;321.25;;;;;;;;;;5027221;28;20491;-50
2021/12/15 04:34:28;;;;;;;555.60;326.70;;;;;;;;;;5027300;28;20029;-52
2021/12/15 04:36:53;;;;;;;543.53;317.98;;;;;;;;;;5027552;28;20415;-51
2021/12/15 04:39:22;;;;;;;570.13;340.80;;;;;;;;;;5027195;28;20057;-53
2021/12/15 04:41:50;;;;;;;554.45;328.17;;;;;;;;;;5027171;28;20100;-53
2021/12/15 04:44:15;;;;;;;584.70;350.27;;;;;;;;;;5027371;28;20152;-51
2021/12/15 04:46:44;;;;;;;572.78;341.95;;;;;;;;;;5027231;28;20041;-51
2021/12/15 04:49:10;;;;;;;589.35;353.05;;;;;;;;;;5027493;28;20092;-53
2021/12/15 04:51:36;;;;;;;579.47;346.58;;;;;;;;;;5027114;28;20053;-53
2021/12/15 04:54:01;;;;;;;594.92;358.38;;;;;;;;;;5026828;28;20058;-52
2021/12/15 04:56:26;;;;;;;533.83;310.83;;;;;;;;;;5027082;28;20160;-52
2021/12/15 04:58:53;;;;;;;501.00;288.63;;;;;;;;;;5042372;28;20812;-53
2021/12/15 05:01:18;;;;;;;502.50;292.42;;;;;;;;;;5026984;28;20051;-51
2021/12/15 05:03:44;;;;;;;509.17;293.38;;;;;;;;;;5027071;28;20816;-50
2021/12/15 05:06:09;;;;;;;495.67;283.13;;;;;;;;;;5026402;28;20021;-53
2021/12/15 05:08:34;;;;;;;503.95;291.38;;;;;;;;;;5026441;28;20017;-53
2021/12/15 05:11:00;;;;;;;495.10;284.13;;;;;;;;;;5026714;28;20128;-53
2021/12/15 05:13:26;;;;;;;527.60;306.02;;;;;;;;;;5026512;28;20029;-53
2021/12/15 05:15:51;;;;;;;554.50;328.38;;;;;;;;;;5026774;28;20415;-52
2021/12/15 05:18:16;;;;;;;553.90;325.77;;;;;;;;;;5026312;28;20098;-50
2021/12/15 05:20:46;;;;;;;574.93;343.00;;;;;;;;;;5026429;28;20284;-55
2021/12/15 05:23:14;;;;;;;572.70;340.00;;;;;;;;;;5026524;28;20355;-51
2021/12/15 05:25:39;;;;;;;571.95;339.33;;;;;;;;;;5026621;28;20022;-54
2021/12/15 05:28:04;;;;;;;578.50;345.08;;;;;;;;;;5026256;28;20319;-54
2021/12/15 05:30:30;;;;;;;581.47;347.10;;;;;;;;;;5041518;28;20498;-54
2021/12/15 05:32:55;;;;;;;544.77;318.67;;;;;;;;;;5026413;28;20052;-53
2021/12/15 05:35:23;;;;;;;554.95;326.75;;;;;;;;;;5026411;28;20651;-54
2021/12/15 05:37:49;;;;;;;582.90;349.50;;;;;;;;;;5026264;28;20135;-51
2021/12/15 05:40:14;;;;;;;595.40;358.80;;;;;;;;;;5026080;28;20037;-54
2021/12/15 05:42:39;;;;;;;553.83;327.15;;;;;;;;;;5026213;28;20079;-51
2021/12/15 05:45:05;;;;;;;559.97;330.43;;;;;;;;;;5026053;28;20029;-54
2021/12/15 05:47:30;;;;;;;584.00;349.67;;;;;;;;;;5041064;28;20279;-54
2021/12/15 05:49:56;;;;;;;585.77;349.80;;;;;;;;;;5026201;28;20558;-54
2021/12/15 05:52:21;;;;;;;600.77;363.10;;;;;;;;;;5025701;28;20271;-54
2021/12/15 05:54:46;;;;;;;770.17;577.03;;;;;;;;;;5026042;28;20279;-53
2021/12/15 05:57:11;;;;;;;643.10;407.35;;;;;;;;;;5026061;28;20022;-54
2021/12/15 05:59:37;;;;;;;602.78;366.17;;;;;;;;;;5025888;28;20053;-53
2021/12/15 06:02:02;;;;;;;585.08;349.58;;;;;;;;;;5025621;28;20049;-53
2021/12/15 06:04:27;;;;;;;600.20;362.05;;;;;;;;;;5025915;28;20030;-54
2021/12/15 06:06:53;;;;;;;658.72;429.50;;;;;;;;;;5025871;28;20026;-53
2021/12/15 06:09:18;;;;;;;654.05;421.52;;;;;;;;;;5025763;28;20052;-53
2021/12/15 06:11:46;;;;;;;622.28;382.75;;;;;;;;;;5025986;28;20431;-54
2021/12/15 06:14:12;;;;;;;690.03;462.70;;;;;;;;;;5025499;28;20052;-54
2021/12/15 06:16:37;;;;;;;757.73;544.77;;;;;;;;;;5025674;28;20515;-54
2021/12/15 06:19:03;;;;;;;768.53;571.05;;;;;;;;;;5024319;28;20291;-52
2021/12/15 06:21:28;;;;;;;656.72;421.00;;;;;;;;;;5025139;28;20041;-54
2021/12/15 06:23:53;;;;;;;647.65;414.15;;;;;;;;;;5025599;28;20033;-56
2021/12/15 06:26:19;;;;;;;645.97;409.30;;;;;;;;;;5025393;28;20499;-54
2021/12/15 06:28:45;;;;;;;661.03;427.52;;;;;;;;;;5024432;28;20260;-55
2021/12/15 06:31:10;;;;;;;667.00;435.15;;;;;;;;;;5021914;28;20550;-61
2021/12/15 06:33:38;;;;;;;672.33;440.50;;;;;;;;;;5024503;28;20025;-54
2021/12/15 06:36:04;;;;;;;673.60;442.50;;;;;;;;;;5025170;28;20044;-56
2021/12/15 06:38:31;;;;;;;682.67;450.77;;;;;;;;;;5024543;28;20042;-56
2021/12/15 06:40:57;;;;;;;715.75;492.25;;;;;;;;;;5025371;28;20087;-55
2021/12/15 06:43:22;;;;;;;741.55;528.40;;;;;;;;;;5024949;28;20064;-57
2021/12/15 06:46:28;;;;;;;921.22;756.80;;;;;;;;;;5024648;28;20040;-56
2021/12/15 06:59:32;;;;;;;756.00;550.42;;;;;;;;;;5022916;28;20071;-53
2021/12/15 07:01:57;;;;;;;771.63;571.20;;;;;;;;;;5024461;28;20068;-55
2021/12/15 07:04:22;;;;;;;869.73;704.73;;;;;;;;;;5028974;28;20009;-53
2021/12/15 07:06:48;;;;;;;881.30;713.72;;;;;;;;;;5021044;28;20336;-55
2021/12/15 07:09:13;;;;;;;755.00;544.67;;;;;;;;;;5025202;28;20024;-55
2021/12/15 07:11:38;;;;;;;779.25;581.30;;;;;;;;;;5024817;28;20467;-56
2021/12/15 07:14:03;;;;;;;820.93;638.30;;;;;;;;;;5024542;28;20033;-53
2021/12/15 07:16:31;;;;;;;809.25;614.90;;;;;;;;;;5025029;28;20322;-52
2021/12/15 07:19:10;;;;;;;813.63;617.25;;;;;;;;;;5024207;28;20069;-53
2021/12/15 07:21:38;;;;;;;845.88;662.92;;;;;;;;;;5022888;28;20114;-52
2021/12/15 07:24:03;;;;;;;717.83;494.98;;;;;;;;;;5014228;28;20057;-54
2021/12/15 07:26:28;;;;;;;687.63;458.42;;;;;;;;;;5004222;28;20068;-55
2021/12/15 07:28:54;;;;;;;696.20;466.37;;;;;;;;;;5006749;28;20036;-53
2021/12/15 07:31:19;;;;;;;674.90;438.98;;;;;;;;;;5023177;28;20733;-53
2021/12/15 07:33:44;;;;;;;686.22;455.25;;;;;;;;;;5020035;28;20025;-53
2021/12/15 07:36:10;;;;;;;690.95;463.33;;;;;;;;;;5013082;28;20025;-54
2021/12/15 07:38:41;;;;;;;675.25;444.38;;;;;;;;;;5017955;28;20049;-57
2021/12/15 07:41:20;;;;;;;751.63;545.65;;;;;;;;;;5023875;28;20045;-54
2021/12/15 07:43:46;;;;;;;829.83;637.35;;;;;;;;;;5032000;28;20549;-52
2021/12/15 07:46:12;;;;;;;684.28;453.60;;;;;;;;;;5023272;28;20026;-55
2021/12/15 07:48:39;;;;;;;637.53;399.38;;;;;;;;;;5022800;28;20029;-52
2021/12/15 07:51:05;;;;;;;601.63;365.50;;;;;;;;;;5023085;28;20447;-52
2021/12/15 07:53:30;;;;;;;597.50;357.23;;;;;;;;;;5022990;28;20021;-52
2021/12/15 07:55:55;;;;;;;607.87;368.80;;;;;;;;;;5023008;28;20917;-54
2021/12/15 07:58:22;;;;;;;583.92;347.55;;;;;;;;;;5022515;28;20256;-53
2021/12/15 08:00:47;;;;;;;628.53;389.35;;;;;;;;;;5023479;28;20579;-53
2021/12/15 08:03:13;;;;;;;621.58;381.35;;;;;;;;;;5022937;28;20116;-53
2021/12/15 08:05:38;;;;;;;617.88;377.75;;;;;;;;;;5022618;28;20483;-53
2021/12/15 08:08:04;;;;;;;650.75;414.05;;;;;;;;;;5020198;28;20020;-53
2021/12/15 08:10:29;;;;;;;646.67;409.63;;;;;;;;;;5022552;28;20021;-57
2021/12/15 08:12:54;;;;;;;637.55;397.08;;;;;;;;;;5023223;28;20496;-54
2021/12/15 08:15:19;;;;;;;663.58;430.35;;;;;;;;;;5023792;28;20025;-54
2021/12/15 08:17:50;;;;;;;648.47;408.05;;;;;;;;;;5023787;28;20112;-53
2021/12/15 08:20:16;;;;;;;662.85;427.40;;;;;;;;;;5008093;28;20065;-53
2021/12/15 08:22:41;;;;;;;665.08;430.45;;;;;;;;;;5023598;28;20097;-53
2021/12/15 08:25:07;;;;;;;666.58;430.73;;;;;;;;;;5024389;28;20018;-54
2021/12/15 08:27:33;;;;;;;694.90;465.30;;;;;;;;;;5023672;28;20466;-55
2021/12/15 08:29:58;;;;;;;718.10;495.13;;;;;;;;;;5023622;28;20090;-53
2021/12/15 08:32:23;;;;;;;701.73;472.00;;;;;;;;;;5020579;28;20256;-54
2021/12/15 08:34:48;;;;;;;718.92;497.40;;;;;;;;;;5023592;28;20636;-54
2021/12/15 08:37:14;;;;;;;758.53;547.13;;;;;;;;;;5022905;28;20017;-54
2021/12/15 08:39:40;;;;;;;753.45;540.08;;;;;;;;;;5023834;28;20462;-53
2021/12/15 08:42:06;;;;;;;971.95;817.13;;;;;;;;;;5024169;28;20032;-53
2021/12/15 08:44:31;;;;;;;824.15;630.80;;;;;;;;;;5027098;28;20424;-54
2021/12/15 08:46:56;;;;;;;828.20;646.97;;;;;;;;;;5026661;28;20558;-59
2021/12/15 08:49:23;;;;;;;885.27;721.37;;;;;;;;;;5008647;28;20056;-53
2021/12/15 08:51:48;;;;;;;1046.53;867.22;;;;;;;;;;5006582;28;20269;-53
2021/12/15 08:54:14;;;;;;;835.05;649.47;;;;;;;;;;5007612;28;20030;-52
2021/12/15 08:56:40;;;;;;;825.20;631.28;;;;;;;;;;5014784;28;20029;-54
2021/12/15 08:59:05;;;;;;;825.17;634.58;;;;;;;;;;5009168;28;20041;-52
2021/12/15 09:01:30;;;;;;;789.70;589.17;;;;;;;;;;5006365;28;20460;-52
2021/12/15 09:03:56;;;;;;;801.60;602.38;;;;;;;;;;5006401;28;20265;-52
2021/12/15 09:06:21;;;;;;;806.50;611.77;;;;;;;;;;5009115;28;20725;-55
2021/12/15 09:08:46;;;;;;;819.15;626.60;;;;;;;;;;5026421;28;20268;-55
2021/12/15 09:11:13;;;;;;;790.35;591.35;;;;;;;;;;5027022;28;20691;-53
2021/12/15 09:13:38;;;;;;;829.67;642.65;;;;;;;;;;5026464;28;20087;-53
2021/12/15 09:16:05;;;;;;;810.35;615.67;;;;;;;;;;5026623;28;20037;-53
2021/12/15 09:18:30;;;;;;;795.97;595.65;;;;;;;;;;5026603;28;20750;-54
2021/12/15 09:20:56;;;;;;;828.23;638.43;;;;;;;;;;5041283;28;20044;-54
2021/12/15 09:23:21;;;;;;;823.67;632.28;;;;;;;;;;5034544;28;20415;-54
2021/12/15 09:25:46;;;;;;;825.80;636.13;;;;;;;;;;5026624;28;20036;-52
2021/12/15 09:28:12;;;;;;;830.50;644.33;;;;;;;;;;5026077;28;20721;-51
2021/12/15 09:30:43;;;;;;;833.38;649.55;;;;;;;;;;5026231;28;20064;-53
2021/12/15 09:33:09;;;;;;;857.55;673.95;;;;;;;;;;5024513;28;20168;-52
2021/12/15 09:35:34;;;;;;;823.08;632.20;;;;;;;;;;5026386;28;20462;-52
2021/12/15 09:37:59;;;;;;;838.70;654.00;;;;;;;;;;5026119;28;20053;-52
2021/12/15 09:40:25;;;;;;;840.97;660.00;;;;;;;;;;5025444;28;20048;-53
2021/12/15 09:42:50;;;;;;;841.55;658.13;;;;;;;;;;5025718;28;20018;-53
2021/12/15 09:45:37;;;;;;;805.80;610.88;;;;;;;;;;5026224;28;20056;-52
2021/12/15 09:56:49;;;;;;;822.45;637.22;;;;;;;;;;5007401;28;20073;-55
2021/12/15 10:04:34;;;;;;;849.07;665.53;;;;;;;;;;5026059;28;20013;-54
2021/12/15 10:18:02;;;;;;;867.15;696.33;;;;;;;;;;5026106;28;20036;-52
2021/12/15 10:20:28;;;;;;;871.78;699.53;;;;;;;;;;5025372;28;20041;-52
2021/12/15 10:22:58;;;;;;;832.28;648.97;;;;;;;;;;5025715;28;20030;-53
2021/12/15 10:25:24;;;;;;;861.50;685.28;;;;;;;;;;5025862;28;20425;-53
2021/12/15 10:27:54;;;;;;;849.72;672.40;;;;;;;;;;5025123;28;20017;-53
2021/12/15 10:30:23;;;;;;;861.47;689.15;;;;;;;;;;5025495;28;20021;-53
2021/12/15 10:32:49;;;;;;;864.60;694.70;;;;;;;;;;5025077;28;20104;-53
2021/12/15 10:35:19;;;;;;;869.20;697.10;;;;;;;;;;5025676;28;20552;-54
2021/12/15 10:38:04;;;;;;;898.67;731.33;;;;;;;;;;5017842;28;20033;-52
2021/12/15 10:40:29;;;;;;;885.47;717.40;;;;;;;;;;5017651;28;20389;-55
2021/12/15 10:43:01;;;;;;;877.88;707.58;;;;;;;;;;5025159;28;20032;-54
2021/12/15 10:45:32;;;;;;;892.72;724.28;;;;;;;;;;5025076;28;20033;-55
2021/12/15 10:47:57;;;;;;;910.33;743.92;;;;;;;;;;5025046;28;20040;-54
2021/12/15 10:50:22;;;;;;;904.57;739.40;;;;;;;;;;5024944;28;20029;-56
2021/12/15 10:52:49;;;;;;;912.78;747.00;;;;;;;;;;5024250;28;20810;-54
2021/12/15 10:55:14;;;;;;;864.95;690.17;;;;;;;;;;5024440;28;20160;-55
2021/12/15 10:57:44;;;;;;;862.20;686.80;;;;;;;;;;5024388;28;20105;-55
2021/12/15 11:00:09;;;;;;;866.90;693.50;;;;;;;;;;5024962;28;20296;-55
2021/12/15 11:02:35;;;;;;;840.35;657.97;;;;;;;;;;5024699;28;20095;-55
2021/12/15 11:05:05;;;;;;;843.15;665.63;;;;;;;;;;5024561;28;20018;-53
2021/12/15 11:07:30;;;;;;;;;;;;;;;;;;5025350;28;20025;-53
2021/12/15 11:09:56;;;;;;;814.77;630.80;;;;;;;;;;5024956;28;19920;-54
2021/12/15 11:12:24;;;;;;;846.45;670.28;;;;;;;;;;5024550;28;20028;-52
2021/12/15 11:14:50;;;;;;;843.35;662.65;;;;;;;;;;5024529;28;20026;-53
2021/12/15 11:17:20;;;;;;;872.35;703.53;;;;;;;;;;5024345;28;20036;-53
2021/12/15 11:20:03;;;;;;;900.53;735.55;;;;;;;;;;5024850;28;20037;-51
2021/12/15 11:22:47;;;;;;;903.13;742.78;;;;;;;;;;5024486;28;20086;-55
2021/12/15 11:25:18;;;;;;;924.50;761.80;;;;;;;;;;5024833;28;20022;-53
2021/12/15 11:27:43;;;;;;;944.47;785.33;;;;;;;;;;5024711;28;20065;-54
2021/12/15 11:30:13;;;;;;;955.28;797.38;;;;;;;;;;5039510;28;20129;-55
2021/12/15 11:32:39;;;;;;;927.25;758.70;;;;;;;;;;5024082;28;20025;-54
2021/12/15 11:35:07;;;;;;;1017.10;856.58;;;;;;;;;;5024285;28;20622;-53
2021/12/15 11:37:43;;;;;;;960.92;798.83;;;;;;;;;;5024254;28;20029;-54
2021/12/15 11:40:09;;;;;;;930.72;770.72;;;;;;;;;;5024266;28;20053;-54
2021/12/15 11:42:38;;;;;;;913.65;746.50;;;;;;;;;;5024237;28;20668;-55
2021/12/15 11:45:04;;;;;;;889.83;720.33;;;;;;;;;;5024191;28;20057;-53
2021/12/15 11:47:32;;;;;;;879.35;707.80;;;;;;;;;;5023847;28;20593;-52
2021/12/15 11:50:04;;;;;;;896.08;728.53;;;;;;;;;;5024301;28;20025;-50
2021/12/15 11:52:35;;;;;;;894.58;725.35;;;;;;;;;;5024170;28;20021;-52
2021/12/15 11:55:01;;;;;;;904.13;736.22;;;;;;;;;;5024116;28;20025;-51
2021/12/15 11:57:27;;;;;;;914.03;750.00;;;;;;;;;;5024483;28;20040;-52
2021/12/15 11:59:53;;;;;;;869.85;692.17;;;;;;;;;;5024296;28;20307;-49
2021/12/15 12:02:21;;;;;;;864.45;691.30;;;;;;;;;;5024041;28;20120;-52
2021/12/15 12:04:52;;;;;;;859.17;684.30;;;;;;;;;;5023913;28;20052;-52
2021/12/15 12:07:17;;;;;;;850.88;672.25;;;;;;;;;;5023859;28;20029;-53
2021/12/15 12:09:44;;;;;;;812.53;626.83;;;;;;;;;;5024013;28;20523;-54
2021/12/15 12:12:09;;;;;;;842.00;661.72;;;;;;;;;;5023990;28;20272;-52
2021/12/15 12:14:49;;;;;;;844.58;662.85;;;;;;;;;;5023874;28;20029;-54
2021/12/15 12:17:22;;;;;;;855.13;679.47;;;;;;;;;;5026781;28;20029;-53
2021/12/15 12:19:49;;;;;;;855.85;682.38;;;;;;;;;;5027825;28;20033;-53
2021/12/15 12:22:15;;;;;;;819.13;630.78;;;;;;;;;;5027845;28;20086;-52
2021/12/15 12:24:41;;;;;;;883.80;717.85;;;;;;;;;;5027830;28;20445;-54
2021/12/15 12:27:07;;;;;;;875.25;706.92;;;;;;;;;;5043008;28;20022;-54
2021/12/15 12:29:32;;;;;;;852.63;677.70;;;;;;;;;;5043152;28;20511;-50
2021/12/15 12:31:57;;;;;;;859.13;695.20;;;;;;;;;;5027474;28;20299;-53
2021/12/15 12:34:23;;;;;;;850.63;683.90;;;;;;;;;;5026952;28;20036;-52
2021/12/15 12:36:48;;;;;;;856.07;694.40;;;;;;;;;;5027654;28;20790;-53
2021/12/15 12:39:14;;;;;;;843.33;671.88;;;;;;;;;;5042512;28;20369;-49
2021/12/15 12:41:40;;;;;;;911.13;759.03;;;;;;;;;;5027278;28;20092;-51
2021/12/15 12:44:06;;;;;;;913.35;760.55;;;;;;;;;;5027367;28;20501;-54
2021/12/15 13:00:27;;;;;;;923.33;776.47;;;;;;;;;;5027272;28;20048;-52
2021/12/15 13:03:00;;;;;;;938.45;791.58;;;;;;;;;;5027005;28;20033;-53
2021/12/15 13:05:33;;;;;;;932.75;785.75;;;;;;;;;;5027108;28;20026;-55
2021/12/15 13:08:00;;;;;;;941.20;793.92;;;;;;;;;;5026727;28;20653;-54
2021/12/15 13:10:44;;;;;;;933.33;786.85;;;;;;;;;;5026770;28;20060;-54
2021/12/15 13:13:12;;;;;;;917.25;772.88;;;;;;;;;;5026718;28;20036;-51
2021/12/15 13:15:38;;;;;;;925.80;777.75;;;;;;;;;;5026736;28;20032;-55
2021/12/15 13:18:11;;;;;;;921.95;776.72;;;;;;;;;;5041672;28;20108;-52
2021/12/15 13:20:36;;;;;;;913.90;766.08;;;;;;;;;;5040544;28;20048;-50
2021/12/15 13:23:29;;;;;;;918.80;774.78;;;;;;;;;;5026421;28;20422;-54
2021/12/15 13:28:48;;;;;;;956.83;812.65;;;;;;;;;;5026305;28;20060;-53
2021/12/15 13:31:19;;;;;;;953.17;809.78;;;;;;;;;;5026761;28;20091;-50
2021/12/15 13:33:46;;;;;;;963.22;817.97;;;;;;;;;;5026742;28;20056;-54
2021/12/15 13:36:11;;;;;;;980.65;835.20;;;;;;;;;;5026449;28;20040;-53
2021/12/15 13:38:38;;;;;;;988.13;840.80;;;;;;;;;;5025947;28;20054;-54
2021/12/15 13:41:14;;;;;;;980.80;835.47;;;;;;;;;;5026219;28;20127;-53
2021/12/15 13:43:42;;;;;;;994.75;848.10;;;;;;;;;;5026413;28;20040;-54
2021/12/15 13:46:09;;;;;;;990.53;844.88;;;;;;;;;;5024866;28;20043;-52
2021/12/15 13:48:53;;;;;;;995.10;851.72;;;;;;;;;;5040960;28;20491;-53
2021/12/15 13:51:38;;;;;;;995.72;852.67;;;;;;;;;;5026318;28;20025;-51
2021/12/15 13:54:04;;;;;;;1110.25;929.53;;;;;;;;;;5029274;28;20137;-54
2021/12/15 13:56:45;;;;;;;1264.90;999.90;;;;;;;;;;5026327;28;20108;-53
2021/12/15 13:59:46;;;;;;;1115.13;932.28;;;;;;;;;;5026796;28;20337;-54
2021/12/15 14:02:17;;;;;;;1060.43;898.53;;;;;;;;;;4985217;28;20536;-53
2021/12/15 14:04:59;;;;;;;1011.13;860.40;;;;;;;;;;5018564;28;20156;-52
2021/12/15 14:07:28;;;;;;;1001.28;854.72;;;;;;;;;;5041281;28;20065;-51
2021/12/15 14:09:53;;;;;;;1042.45;887.15;;;;;;;;;;5025854;28;20037;-52
2021/12/15 14:12:37;;;;;;;1091.57;919.27;;;;;;;;;;5025828;28;20021;-52
2021/12/15 14:15:02;;;;;;;1119.72;940.30;;;;;;;;;;5010496;28;20295;-52
2021/12/15 14:17:27;;;;;;;1097.78;926.33;;;;;;;;;;5025793;28;20076;-52
2021/12/15 14:19:53;;;;;;;1067.53;903.83;;;;;;;;;;5025436;28;20029;-54
2021/12/15 14:22:19;;;;;;;1067.20;905.87;;;;;;;;;;5025570;28;20333;-51
2021/12/15 14:24:44;;;;;;;1131.65;946.80;;;;;;;;;;5025618;28;20252;-53
2021/12/15 14:27:09;;;;;;;1084.88;920.00;;;;;;;;;;5025570;28;20040;-55
2021/12/15 14:29:35;;;;;;;1082.30;910.80;;;;;;;;;;5025600;28;20024;-55
2021/12/15 14:32:00;;;;;;;1017.57;870.27;;;;;;;;;;5025296;28;20268;-51
2021/12/15 14:34:30;;;;;;;1043.53;888.30;;;;;;;;;;5025287;28;20537;-52
2021/12/15 14:36:56;;;;;;;1050.90;891.97;;;;;;;;;;5040171;28;20021;-52
2021/12/15 14:39:23;;;;;;;1043.78;888.35;;;;;;;;;;5024535;28;20100;-52
2021/12/15 14:41:52;;;;;;;1000.85;857.83;;;;;;;;;;5018874;28;20037;-53
2021/12/15 14:44:22;;;;;;;996.85;851.55;;;;;;;;;;5041214;28;20033;-53
2021/12/15 14:46:50;;;;;;;1030.40;876.00;;;;;;;;;;5011336;28;20030;-53
2021/12/15 14:49:18;;;;;;;1024.70;876.35;;;;;;;;;;5024969;28;20057;-53
2021/12/15 14:51:44;;;;;;;1045.15;891.38;;;;;;;;;;5025243;28;20153;-54
2021/12/15 14:54:09;;;;;;;1151.25;957.92;;;;;;;;;;5024976;28;20037;-55
2021/12/15 14:56:48;;;;;;;1212.88;992.05;;;;;;;;;;5018821;28;20032;-56
2021/12/15 14:59:14;;;;;;;1213.60;992.35;;;;;;;;;;5024763;28;20064;-54
2021/12/15 15:01:40;;;;;;;1228.65;998.50;;;;;;;;;;5021205;28;20072;-55
2021/12/15 15:04:06;;;;;;;1246.93;999.90;;;;;;;;;;5017747;28;20033;-52
2021/12/15 15:06:31;;;;;;;1340.88;999.90;;;;;;;;;;5025542;28;20025;-55
2021/12/15 15:09:14;;;;;;;1292.65;999.90;;;;;;;;;;5024951;28;20479;-54
2021/12/15 15:11:53;;;;;;;1239.47;999.90;;;;;;;;;;5024999;28;20052;-55
2021/12/15 15:14:29;;;;;;;1250.13;999.90;;;;;;;;;;5024825;28;20040;-53
2021/12/15 15:16:55;;;;;;;1297.97;999.90;;;;;;;;;;5024194;28;20025;-52
2021/12/15 15:19:20;;;;;;;1343.60;999.90;;;;;;;;;;5024327;28;20099;-55